sensor_id;sensor_type;location;lat;lon;timestamp;pressure;altitude;pressure_sealevel;temperature
45393;BMP280;31129;44.810;10.334;2022-10-16T00:00:32;101131.25;;;20.11
45393;BMP280;31129;44.810;10.334;2022-10-16T00:02:57;101129.47;;;20.14
45393;BMP280;31129;44.810;10.334;2022-10-16T00:05:23;101127.97;;;20.13
45393;BMP280;31129;44.810;10.334;2022-10-16T00:07:48;101135.47;;;20.18
45393;BMP280;31129;44.810;10.334;2022-10-16T00:10:14;101135.22;;;20.16
45393;BMP280;31129;44.810;10.334;2022-10-16T00:12:39;101139.00;;;20.19
45393;BMP280;31129;44.810;10.334;2022-10-16T00:15:05;101137.22;;;20.15
45393;BMP280;31129;44.810;10.334;2022-10-16T00:17:31;101143.03;;;20.18
45393;BMP280;31129;44.810;10.334;2022-10-16T00:19:57;101148.25;;;20.21
45393;BMP280;31129;44.810;10.334;2022-10-16T00:22:22;101150.28;;;20.21
45393;BMP280;31129;44.810;10.334;2022-10-16T00:24:48;101159.34;;;20.21
45393;BMP280;31129;44.810;10.334;2022-10-16T00:27:13;101153.88;;;20.15
45393;BMP280;31129;44.810;10.334;2022-10-16T00:29:39;101154.88;;;20.18
45393;BMP280;31129;44.810;10.334;2022-10-16T00:32:05;101149.81;;;20.17
45393;BMP280;31129;44.810;10.334;2022-10-16T00:34:30;101162.66;;;20.20
45393;BMP280;31129;44.810;10.334;2022-10-16T00:36:56;101158.41;;;20.19
45393;BMP280;31129;44.810;10.334;2022-10-16T00:39:21;101156.34;;;20.19
45393;BMP280;31129;44.810;10.334;2022-10-16T00:41:47;101146.09;;;20.14
45393;BMP280;31129;44.810;10.334;2022-10-16T00:44:51;101149.06;;;20.16
45393;BMP280;31129;44.810;10.334;2022-10-16T00:47:37;101153.38;;;20.17
45393;BMP280;31129;44.810;10.334;2022-10-16T00:50:10;101147.06;;;20.17
45393;BMP280;31129;44.810;10.334;2022-10-16T00:52:43;101152.38;;;20.14
45393;BMP280;31129;44.810;10.334;2022-10-16T00:55:09;101165.25;;;20.12
45393;BMP280;31129;44.810;10.334;2022-10-16T00:57:36;101166.84;;;20.07
45393;BMP280;31129;44.810;10.334;2022-10-16T01:00:08;101160.03;;;20.08
45393;BMP280;31129;44.810;10.334;2022-10-16T01:02:34;101158.09;;;20.03
45393;BMP280;31129;44.810;10.334;2022-10-16T01:05:00;101157.09;;;20.01
45393;BMP280;31129;44.810;10.334;2022-10-16T01:07:49;101165.41;;;20.01
45393;BMP280;31129;44.810;10.334;2022-10-16T01:10:35;101157.69;;;19.94
45393;BMP280;31129;44.810;10.334;2022-10-16T01:18:35;101161.88;;;20.00
45393;BMP280;31129;44.810;10.334;2022-10-16T01:21:05;101154.41;;;19.95
45393;BMP280;31129;44.810;10.334;2022-10-16T01:28:42;101159.25;;;19.89
45393;BMP280;31129;44.810;10.334;2022-10-16T01:31:15;101145.88;;;19.93
45393;BMP280;31129;44.810;10.334;2022-10-16T01:33:46;101145.13;;;19.93
45393;BMP280;31129;44.810;10.334;2022-10-16T01:36:16;101143.84;;;19.94
45393;BMP280;31129;44.810;10.334;2022-10-16T01:38:46;101144.13;;;19.90
45393;BMP280;31129;44.810;10.334;2022-10-16T01:41:27;101150.34;;;19.96
45393;BMP280;31129;44.810;10.334;2022-10-16T01:43:57;101151.41;;;19.93
45393;BMP280;31129;44.810;10.334;2022-10-16T01:46:25;101151.94;;;19.92
45393;BMP280;31129;44.810;10.334;2022-10-16T01:48:52;101153.94;;;19.91
45393;BMP280;31129;44.810;10.334;2022-10-16T01:51:19;101159.25;;;19.89
45393;BMP280;31129;44.810;10.334;2022-10-16T01:53:48;101157.03;;;19.88
45393;BMP280;31129;44.810;10.334;2022-10-16T01:56:16;101154.81;;;19.81
45393;BMP280;31129;44.810;10.334;2022-10-16T01:58:47;101149.81;;;19.79
45393;BMP280;31129;44.810;10.334;2022-10-16T02:01:15;101150.34;;;19.78
45393;BMP280;31129;44.810;10.334;2022-10-16T02:03:42;101154.81;;;19.81
45393;BMP280;31129;44.810;10.334;2022-10-16T02:06:10;101155.38;;;19.79
45393;BMP280;31129;44.810;10.334;2022-10-16T02:08:35;101152.94;;;19.70
45393;BMP280;31129;44.810;10.334;2022-10-16T02:11:02;101150.47;;;19.66
45393;BMP280;31129;44.810;10.334;2022-10-16T02:13:35;101150.47;;;19.66
45393;BMP280;31129;44.810;10.334;2022-10-16T02:16:03;101147.72;;;19.66
45393;BMP280;31129;44.810;10.334;2022-10-16T02:18:28;101147.97;;;19.63
45393;BMP280;31129;44.810;10.334;2022-10-16T02:21:25;101149.59;;;19.58
45393;BMP280;31129;44.810;10.334;2022-10-16T02:23:54;101155.78;;;19.64
45393;BMP280;31129;44.810;10.334;2022-10-16T02:26:31;101153.06;;;19.59
45393;BMP280;31129;44.810;10.334;2022-10-16T02:29:02;101154.09;;;19.56
45393;BMP280;31129;44.810;10.334;2022-10-16T02:31:32;101146.84;;;19.53
45393;BMP280;31129;44.810;10.334;2022-10-16T02:34:00;101149.38;;;19.51
45393;BMP280;31129;44.810;10.334;2022-10-16T02:36:28;101155.16;;;19.53
45393;BMP280;31129;44.810;10.334;2022-10-16T02:38:55;101147.34;;;19.51
45393;BMP280;31129;44.810;10.334;2022-10-16T02:41:21;101142.13;;;19.48
45393;BMP280;31129;44.810;10.334;2022-10-16T02:43:48;101159.56;;;19.43
45393;BMP280;31129;44.810;10.334;2022-10-16T02:46:14;101154.75;;;19.43
45393;BMP280;31129;44.810;10.334;2022-10-16T02:48:39;101155.78;;;19.40
45393;BMP280;31129;44.810;10.334;2022-10-16T02:51:06;101159.06;;;19.39
45393;BMP280;31129;44.810;10.334;2022-10-16T02:53:31;101163.09;;;19.38
45393;BMP280;31129;44.810;10.334;2022-10-16T02:55:57;101158.28;;;19.44
45393;BMP280;31129;44.810;10.334;2022-10-16T02:58:22;101165.88;;;19.38
45393;BMP280;31129;44.810;10.334;2022-10-16T03:00:48;101167.88;;;19.37
45393;BMP280;31129;44.810;10.334;2022-10-16T03:03:14;101166.09;;;19.40
45393;BMP280;31129;44.810;10.334;2022-10-16T03:05:39;101164.38;;;19.37
45393;BMP280;31129;44.810;10.334;2022-10-16T03:08:05;101159.88;;;19.33
45393;BMP280;31129;44.810;10.334;2022-10-16T03:10:31;101169.91;;;19.37
45393;BMP280;31129;44.810;10.334;2022-10-16T03:12:56;101163.63;;;19.36
45393;BMP280;31129;44.810;10.334;2022-10-16T03:15:22;101170.44;;;19.35
45393;BMP280;31129;44.810;10.334;2022-10-16T03:17:47;101165.66;;;19.36
45393;BMP280;31129;44.810;10.334;2022-10-16T03:20:13;101163.09;;;19.38
45393;BMP280;31129;44.810;10.334;2022-10-16T03:22:38;101165.66;;;19.36
45393;BMP280;31129;44.810;10.334;2022-10-16T03:25:04;101166.63;;;19.38
45393;BMP280;31129;44.810;10.334;2022-10-16T03:27:30;101170.16;;;19.39
45393;BMP280;31129;44.810;10.334;2022-10-16T03:29:55;101176.19;;;19.37
45393;BMP280;31129;44.810;10.334;2022-10-16T03:32:21;101179.72;;;19.38
45393;BMP280;31129;44.810;10.334;2022-10-16T03:34:47;101178.94;;;19.43
45393;BMP280;31129;44.810;10.334;2022-10-16T03:37:12;101180.19;;;19.42
45393;BMP280;31129;44.810;10.334;2022-10-16T03:39:38;101177.19;;;19.40
45393;BMP280;31129;44.810;10.334;2022-10-16T03:42:03;101173.41;;;19.43
45393;BMP280;31129;44.810;10.334;2022-10-16T03:44:29;101181.41;;;19.46
45393;BMP280;31129;44.810;10.334;2022-10-16T03:46:55;101183.03;;;19.36
45393;BMP280;31129;44.810;10.334;2022-10-16T03:49:20;101181.22;;;19.39
45393;BMP280;31129;44.810;10.334;2022-10-16T03:51:46;101190.56;;;19.36
45393;BMP280;31129;44.810;10.334;2022-10-16T03:54:11;101191.84;;;19.35
45393;BMP280;31129;44.810;10.334;2022-10-16T03:56:38;101185.09;;;19.30
45393;BMP280;31129;44.810;10.334;2022-10-16T03:59:03;101192.88;;;19.31
45393;BMP280;31129;44.810;10.334;2022-10-16T04:01:29;101184.16;;;19.22
45393;BMP280;31129;44.810;10.334;2022-10-16T04:03:54;101186.13;;;19.27
45393;BMP280;31129;44.810;10.334;2022-10-16T04:06:20;101187.44;;;19.20
45393;BMP280;31129;44.810;10.334;2022-10-16T04:08:45;101198.25;;;19.18
45393;BMP280;31129;44.810;10.334;2022-10-16T04:11:11;101194.53;;;19.16
45393;BMP280;31129;44.810;10.334;2022-10-16T04:13:36;101194.75;;;19.18
45393;BMP280;31129;44.810;10.334;2022-10-16T04:16:02;101200.06;;;19.16
45393;BMP280;31129;44.810;10.334;2022-10-16T04:18:27;101189.03;;;19.10
45393;BMP280;31129;44.810;10.334;2022-10-16T04:20:54;101188.03;;;19.13
45393;BMP280;31129;44.810;10.334;2022-10-16T04:23:20;101190.03;;;19.13
45393;BMP280;31129;44.810;10.334;2022-10-16T04:25:46;101188.53;;;19.12
45393;BMP280;31129;44.810;10.334;2022-10-16T04:28:11;101197.59;;;19.12
45393;BMP280;31129;44.810;10.334;2022-10-16T04:30:40;101200.66;;;19.03
45393;BMP280;31129;44.810;10.334;2022-10-16T04:33:05;101191.91;;;18.93
45393;BMP280;31129;44.810;10.334;2022-10-16T04:35:31;101198.44;;;18.96
45393;BMP280;31129;44.810;10.334;2022-10-16T04:37:58;101193.72;;;18.91
45393;BMP280;31129;44.810;10.334;2022-10-16T04:40:23;101192.22;;;18.90
45393;BMP280;31129;44.810;10.334;2022-10-16T04:42:49;101196.19;;;18.95
45393;BMP280;31129;44.810;10.334;2022-10-16T04:45:15;101203.28;;;18.90
45393;BMP280;31129;44.810;10.334;2022-10-16T04:47:40;101196.75;;;18.87
45393;BMP280;31129;44.810;10.334;2022-10-16T04:50:06;101198.59;;;18.74
45393;BMP280;31129;44.810;10.334;2022-10-16T04:52:32;101201.38;;;18.74
45393;BMP280;31129;44.810;10.334;2022-10-16T04:54:58;101201.59;;;18.76
45393;BMP280;31129;44.810;10.334;2022-10-16T04:57:27;101210.88;;;18.78
45393;BMP280;31129;44.810;10.334;2022-10-16T04:59:53;101217.16;;;18.79
45393;BMP280;31129;44.810;10.334;2022-10-16T05:02:18;101204.88;;;18.74
45393;BMP280;31129;44.810;10.334;2022-10-16T05:04:44;101217.97;;;18.74
45393;BMP280;31129;44.810;10.334;2022-10-16T05:07:09;101215.25;;;18.63
45393;BMP280;31129;44.810;10.334;2022-10-16T05:09:35;101214.00;;;18.64
45393;BMP280;31129;44.810;10.334;2022-10-16T05:12:00;101215.75;;;18.67
45393;BMP280;31129;44.810;10.334;2022-10-16T05:14:26;101213.25;;;18.63
45393;BMP280;31129;44.810;10.334;2022-10-16T05:16:51;101218.03;;;18.68
45393;BMP280;31129;44.810;10.334;2022-10-16T05:19:17;101219.03;;;18.65
45393;BMP280;31129;44.810;10.334;2022-10-16T05:21:42;101220.25;;;18.70
45393;BMP280;31129;44.810;10.334;2022-10-16T05:24:08;101220.25;;;18.70
45393;BMP280;31129;44.810;10.334;2022-10-16T05:26:34;101220.78;;;18.68
45393;BMP280;31129;44.810;10.334;2022-10-16T05:29:00;101211.25;;;18.64
45393;BMP280;31129;44.810;10.334;2022-10-16T05:31:26;101217.03;;;18.60
45393;BMP280;31129;44.810;10.334;2022-10-16T05:33:51;101223.88;;;18.54
45393;BMP280;31129;44.810;10.334;2022-10-16T05:36:17;101222.31;;;18.64
45393;BMP280;31129;44.810;10.334;2022-10-16T05:38:43;101230.56;;;18.69
45393;BMP280;31129;44.810;10.334;2022-10-16T05:41:09;101234.31;;;18.72
45393;BMP280;31129;44.810;10.334;2022-10-16T05:43:34;101229.56;;;18.72
45393;BMP280;31129;44.810;10.334;2022-10-16T05:46:04;101235.09;;;18.72
45393;BMP280;31129;44.810;10.334;2022-10-16T05:48:30;101237.38;;;18.68
45393;BMP280;31129;44.810;10.334;2022-10-16T05:53:23;101237.84;;;18.72
45393;BMP280;31129;44.810;10.334;2022-10-16T05:55:54;101245.59;;;18.74
45393;BMP280;31129;44.810;10.334;2022-10-16T05:58:21;101249.13;;;18.80
45393;BMP280;31129;44.810;10.334;2022-10-16T06:00:57;101256.38;;;18.83
45393;BMP280;31129;44.810;10.334;2022-10-16T06:03:23;101260.66;;;18.78
45393;BMP280;31129;44.810;10.334;2022-10-16T06:05:49;101256.63;;;18.79
45393;BMP280;31129;44.810;10.334;2022-10-16T06:08:15;101267.69;;;18.85
45393;BMP280;31129;44.810;10.334;2022-10-16T06:10:41;101270.00;;;18.81
45393;BMP280;31129;44.810;10.334;2022-10-16T06:13:07;101266.44;;;18.86
45393;BMP280;31129;44.810;10.334;2022-10-16T06:15:32;101273.69;;;18.89
45393;BMP280;31129;44.810;10.334;2022-10-16T06:17:58;101286.72;;;18.94
45393;BMP280;31129;44.810;10.334;2022-10-16T06:20:23;101285.25;;;18.87
45393;BMP280;31129;44.810;10.334;2022-10-16T06:22:49;101290.03;;;18.87
45393;BMP280;31129;44.810;10.334;2022-10-16T06:25:14;101304.13;;;18.89
45393;BMP280;31129;44.810;10.334;2022-10-16T06:27:40;101304.63;;;18.87
45393;BMP280;31129;44.810;10.334;2022-10-16T06:30:06;101310.16;;;18.87
45393;BMP280;31129;44.810;10.334;2022-10-16T06:32:32;101312.66;;;18.91
45393;BMP280;31129;44.810;10.334;2022-10-16T06:34:58;101314.69;;;18.90
45393;BMP280;31129;44.810;10.334;2022-10-16T06:37:23;101317.19;;;18.88
45393;BMP280;31129;44.810;10.334;2022-10-16T06:39:50;101323.72;;;18.91
45393;BMP280;31129;44.810;10.334;2022-10-16T06:42:18;101322.16;;;19.01
45393;BMP280;31129;44.810;10.334;2022-10-16T06:44:44;101332.44;;;19.06
45393;BMP280;31129;44.810;10.334;2022-10-16T06:47:09;101332.16;;;19.10
45393;BMP280;31129;44.810;10.334;2022-10-16T06:49:35;101326.94;;;19.01
45393;BMP280;31129;44.810;10.334;2022-10-16T06:52:00;101337.97;;;19.06
45393;BMP280;31129;44.810;10.334;2022-10-16T06:54:27;101341.31;;;18.99
45393;BMP280;31129;44.810;10.334;2022-10-16T06:56:53;101343.75;;;19.08
45393;BMP280;31129;44.810;10.334;2022-10-16T06:59:22;101351.50;;;19.10
45393;BMP280;31129;44.810;10.334;2022-10-16T07:01:48;101357.31;;;19.12
45393;BMP280;31129;44.810;10.334;2022-10-16T07:04:14;101360.59;;;19.10
45393;BMP280;31129;44.810;10.334;2022-10-16T07:06:40;101363.59;;;19.18
45393;BMP280;31129;44.810;10.334;2022-10-16T07:09:08;101376.41;;;19.15
45393;BMP280;31129;44.810;10.334;2022-10-16T07:11:36;101380.72;;;19.11
45393;BMP280;31129;44.810;10.334;2022-10-16T07:14:02;101380.97;;;19.13
45393;BMP280;31129;44.810;10.334;2022-10-16T07:16:29;101384.22;;;19.17
45393;BMP280;31129;44.810;10.334;2022-10-16T07:18:57;101386.69;;;19.20
45393;BMP280;31129;44.810;10.334;2022-10-16T07:21:25;101382.69;;;19.16
45393;BMP280;31129;44.810;10.334;2022-10-16T07:23:52;101386.19;;;19.22
45393;BMP280;31129;44.810;10.334;2022-10-16T07:26:18;101388.19;;;19.27
45393;BMP280;31129;44.810;10.334;2022-10-16T07:28:44;101384.09;;;19.33
45393;BMP280;31129;44.810;10.334;2022-10-16T07:31:13;101383.59;;;19.35
45393;BMP280;31129;44.810;10.334;2022-10-16T07:33:40;101388.09;;;19.38
45393;BMP280;31129;44.810;10.334;2022-10-16T07:36:07;101384.69;;;19.21
45393;BMP280;31129;44.810;10.334;2022-10-16T07:38:33;101389.72;;;19.22
45393;BMP280;31129;44.810;10.334;2022-10-16T07:41:00;101381.66;;;19.19
45393;BMP280;31129;44.810;10.334;2022-10-16T07:43:26;101392.88;;;19.38
45393;BMP280;31129;44.810;10.334;2022-10-16T07:45:53;101404.25;;;19.34
45393;BMP280;31129;44.810;10.334;2022-10-16T07:48:19;101401.13;;;19.49
45393;BMP280;31129;44.810;10.334;2022-10-16T07:50:45;101403.84;;;19.54
45393;BMP280;31129;44.810;10.334;2022-10-16T07:53:11;101405.50;;;19.68
45393;BMP280;31129;44.810;10.334;2022-10-16T07:55:37;101409.75;;;19.75
45393;BMP280;31129;44.810;10.334;2022-10-16T07:58:03;101418.84;;;19.70
45393;BMP280;31129;44.810;10.334;2022-10-16T08:00:28;101422.41;;;19.65
45393;BMP280;31129;44.810;10.334;2022-10-16T08:02:54;101415.78;;;19.79
45393;BMP280;31129;44.810;10.334;2022-10-16T08:05:19;101427.53;;;19.85
45393;BMP280;31129;44.810;10.334;2022-10-16T08:07:49;101426.28;;;19.86
45393;BMP280;31129;44.810;10.334;2022-10-16T08:10:20;101425.78;;;19.88
45393;BMP280;31129;44.810;10.334;2022-10-16T08:12:46;101432.75;;;19.94
45393;BMP280;31129;44.810;10.334;2022-10-16T08:15:11;101430.44;;;19.98
45393;BMP280;31129;44.810;10.334;2022-10-16T08:17:37;101436.81;;;19.93
45393;BMP280;31129;44.810;10.334;2022-10-16T08:20:03;101436.38;;;20.13
45393;BMP280;31129;44.810;10.334;2022-10-16T08:22:29;101436.69;;;20.10
45393;BMP280;31129;44.810;10.334;2022-10-16T08:24:55;101441.66;;;20.17
45393;BMP280;31129;44.810;10.334;2022-10-16T08:27:20;101442.34;;;20.23
45393;BMP280;31129;44.810;10.334;2022-10-16T08:29:46;101440.91;;;20.41
45393;BMP280;31129;44.810;10.334;2022-10-16T08:32:11;101434.06;;;20.47
45393;BMP280;31129;44.810;10.334;2022-10-16T08:34:37;101447.94;;;20.42
45393;BMP280;31129;44.810;10.334;2022-10-16T08:37:02;101446.06;;;20.55
45393;BMP280;31129;44.810;10.334;2022-10-16T08:39:28;101432.25;;;20.50
45393;BMP280;31129;44.810;10.334;2022-10-16T08:47:49;101450.09;;;20.79
45393;BMP280;31129;44.810;10.334;2022-10-16T08:50:24;101448.97;;;20.87
45393;BMP280;31129;44.810;10.334;2022-10-16T08:52:52;101452.66;;;20.95
45393;BMP280;31129;44.810;10.334;2022-10-16T08:55:29;101458.94;;;20.77
45393;BMP280;31129;44.810;10.334;2022-10-16T08:57:56;101455.69;;;20.73
45393;BMP280;31129;44.810;10.334;2022-10-16T09:00:21;101448.97;;;20.87
45393;BMP280;31129;44.810;10.334;2022-10-16T09:08:22;101464.97;;;21.00
45393;BMP280;31129;44.810;10.334;2022-10-16T09:11:16;101465.25;;;21.15
45393;BMP280;31129;44.810;10.334;2022-10-16T09:16:37;101472.63;;;21.31
45393;BMP280;31129;44.810;10.334;2022-10-16T09:21:48;101473.47;;;21.26
45393;BMP280;31129;44.810;10.334;2022-10-16T09:24:22;101474.44;;;21.29
45393;BMP280;31129;44.810;10.334;2022-10-16T09:26:49;101473.44;;;21.45
45393;BMP280;31129;44.810;10.334;2022-10-16T09:29:19;101471.94;;;21.44
45393;BMP280;31129;44.810;10.334;2022-10-16T09:31:45;101472.38;;;21.48
45393;BMP280;31129;44.810;10.334;2022-10-16T09:34:27;101474.94;;;21.46
45393;BMP280;31129;44.810;10.334;2022-10-16T09:37:17;101472.63;;;21.50
45393;BMP280;31129;44.810;10.334;2022-10-16T09:39:51;101466.56;;;21.65
45393;BMP280;31129;44.810;10.334;2022-10-16T09:42:37;101469.75;;;21.37
45393;BMP280;31129;44.810;10.334;2022-10-16T09:45:03;101475.41;;;21.50
45393;BMP280;31129;44.810;10.334;2022-10-16T09:47:30;101481.53;;;21.62
45393;BMP280;31129;44.810;10.334;2022-10-16T09:50:01;101483.41;;;21.72
45393;BMP280;31129;44.810;10.334;2022-10-16T09:52:30;101479.06;;;21.58
45393;BMP280;31129;44.810;10.334;2022-10-16T09:54:58;101479.50;;;21.62
45393;BMP280;31129;44.810;10.334;2022-10-16T09:57:23;101480.78;;;21.61
45393;BMP280;31129;44.810;10.334;2022-10-16T09:59:51;101474.41;;;21.66
45393;BMP280;31129;44.810;10.334;2022-10-16T10:02:19;101476.03;;;21.75
45393;BMP280;31129;44.810;10.334;2022-10-16T10:04:50;101463.75;;;21.70
45393;BMP280;31129;44.810;10.334;2022-10-16T10:07:24;101474.09;;;21.83
45393;BMP280;31129;44.810;10.334;2022-10-16T10:09:50;101478.44;;;21.97
45393;BMP280;31129;44.810;10.334;2022-10-16T10:12:24;101477.94;;;22.12
45393;BMP280;31129;44.810;10.334;2022-10-16T10:14:52;101470.06;;;21.84
45393;BMP280;31129;44.810;10.334;2022-10-16T10:17:22;101475.22;;;21.93
45393;BMP280;31129;44.810;10.334;2022-10-16T10:22:31;101472.59;;;22.14
45393;BMP280;31129;44.810;10.334;2022-10-16T10:41:37;101459.16;;;22.31
45393;BMP280;31129;44.810;10.334;2022-10-16T10:46:57;101469.66;;;22.51
45393;BMP280;31129;44.810;10.334;2022-10-16T10:49:51;101467.38;;;22.23
45393;BMP280;31129;44.810;10.334;2022-10-16T10:53:01;101463.22;;;22.56
45393;BMP280;31129;44.810;10.334;2022-10-16T10:55:40;101467.50;;;22.71
45393;BMP280;31129;44.810;10.334;2022-10-16T11:03:46;101458.59;;;22.85
45393;BMP280;31129;44.810;10.334;2022-10-16T11:06:35;101458.31;;;23.09
45393;BMP280;31129;44.810;10.334;2022-10-16T11:11:45;101456.94;;;23.37
45393;BMP280;31129;44.810;10.334;2022-10-16T11:14:18;101456.94;;;23.03
45393;BMP280;31129;44.810;10.334;2022-10-16T11:16:51;101453.66;;;22.91
45393;BMP280;31129;44.810;10.334;2022-10-16T11:22:25;101443.38;;;22.73
45393;BMP280;31129;44.810;10.334;2022-10-16T11:27:44;101454.09;;;22.82
45393;BMP280;31129;44.810;10.334;2022-10-16T11:30:20;101460.19;;;22.94
45393;BMP280;31129;44.810;10.334;2022-10-16T11:39:07;101453.63;;;23.38
45393;BMP280;31129;44.810;10.334;2022-10-16T11:41:52;101451.50;;;23.31
45393;BMP280;31129;44.810;10.334;2022-10-16T11:44:37;101448.09;;;23.25
45393;BMP280;31129;44.810;10.334;2022-10-16T11:47:30;101448.25;;;23.40
45393;BMP280;31129;44.810;10.334;2022-10-16T11:50:17;101443.97;;;23.60
45393;BMP280;31129;44.810;10.334;2022-10-16T11:53:13;101450.22;;;23.74
45393;BMP280;31129;44.810;10.334;2022-10-16T11:55:42;101448.09;;;23.67
45393;BMP280;31129;44.810;10.334;2022-10-16T11:59:00;101449.81;;;23.70
45393;BMP280;31129;44.810;10.334;2022-10-16T12:06:23;101442.03;;;23.76
45393;BMP280;31129;44.810;10.334;2022-10-16T12:08:52;101445.19;;;23.72
45393;BMP280;31129;44.810;10.334;2022-10-16T12:16:38;101447.81;;;23.98
45393;BMP280;31129;44.810;10.334;2022-10-16T12:19:12;101451.28;;;23.91
45393;BMP280;31129;44.810;10.334;2022-10-16T12:21:38;101443.84;;;23.94
45393;BMP280;31129;44.810;10.334;2022-10-16T12:24:04;101441.88;;;24.02
45393;BMP280;31129;44.810;10.334;2022-10-16T12:26:51;101441.06;;;23.94
45393;BMP280;31129;44.810;10.334;2022-10-16T12:29:38;101452.53;;;23.83
45393;BMP280;31129;44.810;10.334;2022-10-16T12:32:18;101442.69;;;23.61
45393;BMP280;31129;44.810;10.334;2022-10-16T12:34:47;101438.13;;;23.71
45393;BMP280;31129;44.810;10.334;2022-10-16T12:37:20;101448.00;;;23.80
45393;BMP280;31129;44.810;10.334;2022-10-16T12:39:47;101442.38;;;23.93
45393;BMP280;31129;44.810;10.334;2022-10-16T12:42:32;101445.69;;;23.91
45393;BMP280;31129;44.810;10.334;2022-10-16T12:44:59;101440.34;;;23.93
45393;BMP280;31129;44.810;10.334;2022-10-16T12:49:59;101443.03;;;24.07
45393;BMP280;31129;44.810;10.334;2022-10-16T12:52:26;101450.81;;;24.29
45393;BMP280;31129;44.810;10.334;2022-10-16T12:54:55;101443.63;;;24.49
45393;BMP280;31129;44.810;10.334;2022-10-16T13:03:29;101445.38;;;24.59
45393;BMP280;31129;44.810;10.334;2022-10-16T13:06:37;101451.78;;;24.75
45393;BMP280;31129;44.810;10.334;2022-10-16T13:09:45;101453.31;;;24.55
45393;BMP280;31129;44.810;10.334;2022-10-16T13:23:24;101451.16;;;25.43
45393;BMP280;31129;44.810;10.334;2022-10-16T13:26:23;101449.28;;;25.75
45393;BMP280;31129;44.810;10.334;2022-10-16T13:28:51;101456.75;;;25.65
45393;BMP280;31129;44.810;10.334;2022-10-16T13:31:21;101455.56;;;26.14
45393;BMP280;31129;44.810;10.334;2022-10-16T13:33:50;101458.31;;;26.77
45393;BMP280;31129;44.810;10.334;2022-10-16T13:36:22;101451.81;;;26.99
45393;BMP280;31129;44.810;10.334;2022-10-16T13:38:48;101455.88;;;27.30
45393;BMP280;31129;44.810;10.334;2022-10-16T13:41:17;101449.28;;;27.10
45393;BMP280;31129;44.810;10.334;2022-10-16T13:46:14;101447.69;;;26.28
45393;BMP280;31129;44.810;10.334;2022-10-16T13:48:39;101445.63;;;26.20
45393;BMP280;31129;44.810;10.334;2022-10-16T13:51:11;101452.41;;;25.95
45393;BMP280;31129;44.810;10.334;2022-10-16T13:53:38;101451.88;;;25.89
45393;BMP280;31129;44.810;10.334;2022-10-16T13:56:05;101453.34;;;26.05
45393;BMP280;31129;44.810;10.334;2022-10-16T13:58:31;101453.34;;;26.12
45393;BMP280;31129;44.810;10.334;2022-10-16T14:01:00;101447.53;;;26.18
45393;BMP280;31129;44.810;10.334;2022-10-16T14:03:27;101446.50;;;26.46
45393;BMP280;31129;44.810;10.334;2022-10-16T14:05:55;101458.63;;;26.41
45393;BMP280;31129;44.810;10.334;2022-10-16T14:08:23;101447.00;;;26.59
45393;BMP280;31129;44.810;10.334;2022-10-16T14:10:52;101455.06;;;26.48
45393;BMP280;31129;44.810;10.334;2022-10-16T14:13:21;101455.94;;;26.65
45393;BMP280;31129;44.810;10.334;2022-10-16T14:15:51;101459.22;;;26.79
45393;BMP280;31129;44.810;10.334;2022-10-16T14:18:23;101458.78;;;27.15
45393;BMP280;31129;44.810;10.334;2022-10-16T14:20:50;101453.09;;;26.73
45393;BMP280;31129;44.810;10.334;2022-10-16T14:23:28;101452.56;;;26.99
45393;BMP280;31129;44.810;10.334;2022-10-16T14:25:54;101454.50;;;27.14
45393;BMP280;31129;44.810;10.334;2022-10-16T14:28:30;101452.63;;;27.16
45393;BMP280;31129;44.810;10.334;2022-10-16T14:30:58;101453.16;;;27.23
45393;BMP280;31129;44.810;10.334;2022-10-16T14:33:32;101457.94;;;27.30
45393;BMP280;31129;44.810;10.334;2022-10-16T14:36:05;101454.94;;;27.35
45393;BMP280;31129;44.810;10.334;2022-10-16T14:38:39;101457.41;;;26.99
45393;BMP280;31129;44.810;10.334;2022-10-16T14:41:05;101465.56;;;26.80
45393;BMP280;31129;44.810;10.334;2022-10-16T14:43:37;101465.66;;;26.97
45393;BMP280;31129;44.810;10.334;2022-10-16T14:46:16;101463.00;;;26.74
45393;BMP280;31129;44.810;10.334;2022-10-16T14:48:47;101457.03;;;27.02
45393;BMP280;31129;44.810;10.334;2022-10-16T14:51:18;101463.75;;;27.07
45393;BMP280;31129;44.810;10.334;2022-10-16T14:53:44;101466.31;;;27.37
45393;BMP280;31129;44.810;10.334;2022-10-16T14:56:18;101466.25;;;27.62
45393;BMP280;31129;44.810;10.334;2022-10-16T14:58:44;101459.72;;;27.17
45393;BMP280;31129;44.810;10.334;2022-10-16T15:01:10;101470.50;;;26.96
45393;BMP280;31129;44.810;10.334;2022-10-16T15:03:37;101461.31;;;26.71
45393;BMP280;31129;44.810;10.334;2022-10-16T15:06:03;101471.41;;;26.66
45393;BMP280;31129;44.810;10.334;2022-10-16T15:08:29;101468.84;;;26.61
45393;BMP280;31129;44.810;10.334;2022-10-16T15:10:54;101462.31;;;26.58
45393;BMP280;31129;44.810;10.334;2022-10-16T15:13:20;101471.41;;;26.74
45393;BMP280;31129;44.810;10.334;2022-10-16T15:15:46;101463.75;;;26.67
45393;BMP280;31129;44.810;10.334;2022-10-16T15:18:18;101461.75;;;26.60
45393;BMP280;31129;44.810;10.334;2022-10-16T15:20:51;101467.97;;;26.43
45393;BMP280;31129;44.810;10.334;2022-10-16T15:23:19;101471.84;;;26.55
45393;BMP280;31129;44.810;10.334;2022-10-16T15:25:46;101472.03;;;26.57
45393;BMP280;31129;44.810;10.334;2022-10-16T15:28:13;101474.28;;;26.59
45393;BMP280;31129;44.810;10.334;2022-10-16T15:30:40;101477.94;;;26.69
45393;BMP280;31129;44.810;10.334;2022-10-16T15:33:12;101474.06;;;26.64
45393;BMP280;31129;44.810;10.334;2022-10-16T15:35:38;101470.38;;;26.47
45393;BMP280;31129;44.810;10.334;2022-10-16T15:38:04;101476.63;;;26.22
45393;BMP280;31129;44.810;10.334;2022-10-16T15:40:29;101473.25;;;26.24